createdAt,value
2019-03-20T00:00:46.517Z,101360.70
2019-03-20T00:01:47.973Z,101362.87
2019-03-20T00:02:49.481Z,101363.22
2019-03-20T00:03:50.848Z,101366.89
2019-03-20T00:04:52.353Z,101356.33
2019-03-20T00:05:53.726Z,101352.66
2019-03-20T00:06:55.214Z,101347.30
2019-03-20T00:07:56.598Z,101345.09
2019-03-20T00:08:58.002Z,101342.93
2019-03-20T00:09:59.406Z,101346.31
2019-03-20T00:11:00.913Z,101338.91
2019-03-20T00:12:02.327Z,101344.27
2019-03-20T00:13:03.732Z,101342.42
2019-03-20T00:14:05.099Z,101338.91
2019-03-20T00:15:11.852Z,101345.09
2019-03-20T00:16:13.223Z,101344.63
2019-03-20T00:17:14.622Z,101341.95
2019-03-20T00:18:16.103Z,101338.91
2019-03-20T00:19:17.512Z,101334.51
2019-03-20T00:20:18.916Z,101335.84
2019-03-20T00:21:20.324Z,101336.00
2019-03-20T00:22:21.823Z,101333.80
2019-03-20T00:23:24.221Z,101331.47
2019-03-20T00:24:25.592Z,101332.81
2019-03-20T00:25:27.093Z,101319.06
2019-03-20T00:26:28.467Z,101318.08
2019-03-20T00:27:29.867Z,101309.22
2019-03-20T00:28:31.550Z,101320.76
2019-03-20T00:29:32.960Z,101309.22
2019-03-20T00:30:34.367Z,101305.20
2019-03-20T00:31:35.749Z,101299.33
2019-03-20T00:32:37.220Z,101300.19
2019-03-20T00:33:38.605Z,101297.52
2019-03-20T00:34:40.116Z,101302.01
2019-03-20T00:35:41.530Z,101297.52
2019-03-20T00:36:43.035Z,101287.27
2019-03-20T00:37:44.645Z,101286.92
2019-03-20T00:38:46.051Z,101280.03
2019-03-20T00:39:47.537Z,101279.04
2019-03-20T00:40:50.032Z,101283.77
2019-03-20T00:41:52.416Z,101281.09
2019-03-20T00:42:53.819Z,101274.39
2019-03-20T00:43:55.212Z,101270.50
2019-03-20T00:44:56.629Z,101262.81
2019-03-20T00:45:59.129Z,101264.16
2019-03-20T00:47:00.540Z,101264.16
2019-03-20T00:48:01.946Z,101259.78
2019-03-20T00:49:03.354Z,101258.80
2019-03-20T00:50:10.629Z,101259.78
2019-03-20T00:51:12.024Z,101260.64
2019-03-20T00:52:13.500Z,101256.47
2019-03-20T00:53:14.895Z,101253.44
2019-03-20T00:54:16.282Z,101254.78
2019-03-20T00:55:18.296Z,101249.42
2019-03-20T00:56:19.688Z,101248.08
2019-03-20T00:57:21.101Z,101245.75
2019-03-20T00:58:23.125Z,101247.09
2019-03-20T00:59:24.524Z,101244.06
2019-03-20T01:00:25.908Z,101241.38
2019-03-20T01:01:27.305Z,101237.88
2019-03-20T01:02:28.682Z,101234.33
2019-03-20T01:03:30.256Z,101237.72
2019-03-20T01:04:31.753Z,101235.55
2019-03-20T01:05:33.148Z,101236.53
2019-03-20T01:06:34.537Z,101237.36
2019-03-20T01:07:35.920Z,101241.89
2019-03-20T01:08:37.419Z,101239.69
2019-03-20T01:09:38.813Z,101235.32
2019-03-20T01:10:40.185Z,101227.28
2019-03-20T01:11:41.584Z,101217.91
2019-03-20T01:12:43.021Z,101208.53
2019-03-20T01:13:45.066Z,101194.31
2019-03-20T01:14:46.576Z,101191.64
2019-03-20T01:15:47.966Z,101190.77
2019-03-20T01:16:49.354Z,101184.23
2019-03-20T01:17:50.942Z,101182.03
2019-03-20T01:18:52.328Z,101185.06
2019-03-20T01:19:53.730Z,101179.70
2019-03-20T01:20:55.120Z,101180.34
2019-03-20T01:21:56.600Z,101189.08
2019-03-20T01:22:57.983Z,101191.28
2019-03-20T01:23:59.380Z,101188.61
2019-03-20T01:25:00.778Z,101185.92
2019-03-20T01:26:02.158Z,101181.05
2019-03-20T01:27:03.540Z,101175.69
2019-03-20T01:28:04.926Z,101175.69
2019-03-20T01:29:06.588Z,101173.36
2019-03-20T01:30:13.510Z,101176.67
2019-03-20T01:31:14.888Z,101167.30
2019-03-20T01:32:16.297Z,101174.34
2019-03-20T01:33:17.680Z,101164.62
2019-03-20T01:34:19.146Z,101172.18
2019-03-20T01:35:24.067Z,101163.28
2019-03-20T01:36:23.937Z,101159.78
2019-03-20T01:37:25.321Z,101162.81
2019-03-20T01:38:26.811Z,101153.91
2019-03-20T01:39:28.206Z,101155.59
2019-03-20T01:40:29.704Z,101152.09
2019-03-20T01:41:37.845Z,101148.42
2019-03-20T01:42:34.603Z,101148.91
2019-03-20T01:43:35.976Z,101154.61
2019-03-20T01:44:37.383Z,101153.78
2019-03-20T01:45:38.775Z,101147.91
2019-03-20T01:46:40.155Z,101141.73
2019-03-20T01:47:41.552Z,101138.19
2019-03-20T01:48:42.941Z,101130.66
2019-03-20T01:49:44.336Z,101131.14
2019-03-20T01:50:46.735Z,101122.63
2019-03-20T01:51:48.204Z,101115.94
2019-03-20T01:52:49.596Z,101107.55
2019-03-20T01:53:50.979Z,101109.72
2019-03-20T01:54:52.382Z,101104.01
2019-03-20T01:55:53.779Z,101109.72
2019-03-20T01:56:55.170Z,101108.73
2019-03-20T01:57:56.556Z,101103.53
2019-03-20T01:58:57.939Z,101092.47
2019-03-20T01:59:59.529Z,101096.33
2019-03-20T02:01:00.948Z,101092.47
2019-03-20T02:02:02.765Z,101088.09
2019-03-20T02:03:04.272Z,101084.91
2019-03-20T02:04:05.659Z,101082.23
2019-03-20T02:05:07.238Z,101079.20
2019-03-20T02:06:08.623Z,101075.19
2019-03-20T02:07:10.012Z,101072.86
2019-03-20T02:08:11.395Z,101061.80
2019-03-20T02:09:12.784Z,101063.13
2019-03-20T02:10:15.173Z,101060.11
2019-03-20T02:11:16.676Z,101052.07
2019-03-20T02:12:18.052Z,101051.72
2019-03-20T02:13:19.453Z,101049.55
2019-03-20T02:14:20.833Z,101048.05
2019-03-20T02:15:22.244Z,101035.66
2019-03-20T02:16:23.627Z,101026.63
2019-03-20T02:17:25.014Z,101031.51
2019-03-20T02:18:26.401Z,101028.83
2019-03-20T02:19:27.892Z,101027.84
2019-03-20T02:20:29.300Z,101025.64
2019-03-20T02:21:30.806Z,101024.65
2019-03-20T02:22:33.180Z,101020.63
2019-03-20T02:23:34.583Z,101023.82
2019-03-20T02:24:36.074Z,101012.25
2019-03-20T02:25:37.476Z,101018.46
2019-03-20T02:26:38.871Z,101018.81
2019-03-20T02:27:40.357Z,101011.26
2019-03-20T02:28:41.741Z,101018.46
2019-03-20T02:29:43.232Z,101008.58
2019-03-20T02:30:44.620Z,101014.45
2019-03-20T02:31:46.028Z,101011.26
2019-03-20T02:32:48.387Z,101006.76
2019-03-20T02:33:49.791Z,101007.23
2019-03-20T02:34:51.207Z,101007.23
2019-03-20T02:35:52.990Z,101008.58
2019-03-20T02:36:54.395Z,101009.92
2019-03-20T02:37:55.771Z,101013.94
2019-03-20T02:38:57.166Z,101013.11
2019-03-20T02:39:58.539Z,101016.27
2019-03-20T02:40:59.948Z,101016.78
2019-03-20T02:42:01.445Z,101014.92
2019-03-20T02:43:03.056Z,101022.96
2019-03-20T02:44:04.484Z,101019.80
2019-03-20T02:45:08.694Z,101017.61
2019-03-20T02:46:10.095Z,101014.45
2019-03-20T02:47:11.497Z,101011.77
2019-03-20T02:48:12.880Z,101013.94
2019-03-20T02:49:14.275Z,101010.91
2019-03-20T02:50:15.667Z,101020.28
2019-03-20T02:51:17.067Z,101009.57
2019-03-20T02:52:18.450Z,101012.25
2019-03-20T02:53:19.864Z,101004.21
2019-03-20T02:54:21.273Z,100999.72
2019-03-20T02:55:22.682Z,101001.88
2019-03-20T02:56:24.095Z,101009.57
2019-03-20T02:57:25.521Z,101008.23
2019-03-20T02:58:26.892Z,101009.92
2019-03-20T02:59:28.298Z,100997.04
2019-03-20T03:00:29.678Z,100996.53
2019-03-20T03:01:31.065Z,100995.19
2019-03-20T03:02:32.755Z,100990.34
2019-03-20T03:03:34.126Z,100993.84
2019-03-20T03:04:35.526Z,100987.67
2019-03-20T03:05:36.906Z,100983.48
2019-03-20T03:06:38.373Z,100976.95
2019-03-20T03:07:39.864Z,100976.44
2019-03-20T03:08:42.379Z,100975.45
2019-03-20T03:09:43.793Z,100975.45
2019-03-20T03:10:45.217Z,100974.11
2019-03-20T03:11:46.630Z,100974.46
2019-03-20T03:12:48.101Z,100974.46
2019-03-20T03:13:49.445Z,100967.41
2019-03-20T03:14:50.831Z,100966.42
2019-03-20T03:15:52.323Z,100951.51
2019-03-20T03:16:53.716Z,100957.69
2019-03-20T03:17:55.109Z,100938.12
2019-03-20T03:18:56.517Z,100934.92
2019-03-20T03:19:57.954Z,100926.89
2019-03-20T03:20:59.344Z,100911.69
2019-03-20T03:22:00.846Z,100905.98
2019-03-20T03:23:02.345Z,100906.46
2019-03-20T03:24:03.723Z,100898.94
2019-03-20T03:25:06.631Z,100894.41
2019-03-20T03:26:09.195Z,100881.66
2019-03-20T03:27:10.591Z,100879.33
2019-03-20T03:28:11.985Z,100872.64
2019-03-20T03:29:13.500Z,100872.16
2019-03-20T03:30:16.408Z,100870.30
2019-03-20T03:31:17.946Z,100864.47
2019-03-20T03:32:19.342Z,100866.98
2019-03-20T03:33:20.774Z,100861.80
2019-03-20T03:34:22.140Z,100872.69
2019-03-20T03:35:23.526Z,100894.97
2019-03-20T03:36:24.905Z,100886.94
2019-03-20T03:37:27.393Z,100876.57
2019-03-20T03:38:28.870Z,100883.61
2019-03-20T03:39:30.289Z,100881.06
2019-03-20T03:40:31.685Z,100875.88
2019-03-20T03:41:33.301Z,100882.92
2019-03-20T03:42:34.714Z,100881.23
2019-03-20T03:43:36.112Z,100881.23
2019-03-20T03:44:37.491Z,100878.55
2019-03-20T03:45:38.885Z,100879.55
2019-03-20T03:46:40.363Z,100877.34
2019-03-20T03:47:41.761Z,100875.02
2019-03-20T03:48:43.150Z,100866.64
2019-03-20T03:49:44.558Z,100872.85
2019-03-20T03:50:48.287Z,100856.91
2019-03-20T03:51:49.275Z,100845.38
2019-03-20T03:52:50.687Z,100848.88
2019-03-20T03:53:52.095Z,100854.59
2019-03-20T03:54:53.514Z,100853.76
2019-03-20T03:55:54.899Z,100846.55
2019-03-20T03:56:56.377Z,100850.56
2019-03-20T03:57:58.789Z,100845.72
2019-03-20T03:59:00.159Z,100846.20
2019-03-20T04:00:04.813Z,100851.91
2019-03-20T04:01:07.347Z,100845.72
2019-03-20T04:02:09.724Z,100849.58
2019-03-20T04:03:11.139Z,100846.55
2019-03-20T04:04:12.607Z,100843.52
2019-03-20T04:05:14.090Z,100841.70
2019-03-20T04:06:15.581Z,100841.70
2019-03-20T04:07:16.955Z,100839.86
2019-03-20T04:08:18.415Z,100844.87
2019-03-20T04:09:19.811Z,100841.19
2019-03-20T04:10:21.232Z,100841.70
2019-03-20T04:11:22.636Z,100835.84
2019-03-20T04:12:24.057Z,100828.31
2019-03-20T04:13:25.457Z,100831.47
2019-03-20T04:14:27.006Z,100828.80
2019-03-20T04:15:28.379Z,100825.77
2019-03-20T04:16:29.780Z,100829.66
2019-03-20T04:17:31.162Z,100822.80
2019-03-20T04:18:32.580Z,100828.15
2019-03-20T04:19:33.959Z,100831.17
2019-03-20T04:20:35.380Z,100831.52
2019-03-20T04:21:37.151Z,100828.49
2019-03-20T04:22:38.564Z,100822.14
2019-03-20T04:23:41.081Z,100822.14
2019-03-20T04:24:42.482Z,100821.16
2019-03-20T04:25:43.955Z,100821.66
2019-03-20T04:26:45.439Z,100822.02
2019-03-20T04:27:46.937Z,100821.02
2019-03-20T04:28:48.497Z,100821.84
2019-03-20T04:29:49.887Z,100820.50
2019-03-20T04:30:51.292Z,100816.83
2019-03-20T04:31:52.709Z,100817.83
2019-03-20T04:32:54.122Z,100816.00
2019-03-20T04:33:57.685Z,100816.83
2019-03-20T04:34:59.128Z,100821.70
2019-03-20T04:36:00.502Z,100826.55
2019-03-20T04:37:01.910Z,100821.20
2019-03-20T04:38:03.277Z,100821.54
2019-03-20T04:39:05.470Z,100814.50
2019-03-20T04:40:10.063Z,100814.50
2019-03-20T04:41:11.475Z,100814.84
2019-03-20T04:42:12.889Z,100809.48
2019-03-20T04:43:15.778Z,100813.02
2019-03-20T04:44:17.192Z,100801.11
2019-03-20T04:45:18.606Z,100796.47
2019-03-20T04:46:20.171Z,100799.77
2019-03-20T04:47:21.568Z,100804.64
2019-03-20T04:48:23.145Z,100801.45
2019-03-20T04:49:24.551Z,100798.30
2019-03-20T04:50:25.940Z,100801.45
2019-03-20T04:51:27.360Z,100800.11
2019-03-20T04:52:28.773Z,100800.11
2019-03-20T04:53:30.183Z,100801.45
2019-03-20T04:54:31.696Z,100804.99
2019-03-20T04:55:33.129Z,100797.81
2019-03-20T04:56:34.505Z,100795.13
2019-03-20T04:57:35.909Z,100787.09
2019-03-20T04:58:37.285Z,100789.27
2019-03-20T04:59:38.757Z,100792.80
2019-03-20T05:00:40.149Z,100787.44
2019-03-20T05:01:41.562Z,100795.96
2019-03-20T05:02:42.974Z,100787.44
2019-03-20T05:03:44.387Z,100785.59
2019-03-20T05:04:45.793Z,100785.11
2019-03-20T05:05:47.319Z,100773.06
2019-03-20T05:06:58.433Z,100774.39
2019-03-20T05:07:51.996Z,100771.55
2019-03-20T05:08:54.796Z,100770.38
2019-03-20T05:09:56.382Z,100767.19
2019-03-20T05:10:57.768Z,100770.72
2019-03-20T05:11:59.180Z,100765.84
2019-03-20T05:13:00.586Z,100764.51
2019-03-20T05:14:02.196Z,100766.70
2019-03-20T05:15:05.809Z,100765.37
2019-03-20T05:16:07.216Z,100765.84
2019-03-20T05:17:08.592Z,100766.70
2019-03-20T05:18:09.991Z,100770.20
2019-03-20T05:19:11.368Z,100769.38
2019-03-20T05:20:17.934Z,100772.55
2019-03-20T05:21:19.321Z,100768.87
2019-03-20T05:22:20.738Z,100770.07
2019-03-20T05:23:22.146Z,100774.09
2019-03-20T05:24:23.559Z,100769.38
2019-03-20T05:25:24.973Z,100772.89
2019-03-20T05:26:26.364Z,100767.70
2019-03-20T05:27:27.740Z,100773.06
2019-03-20T05:28:29.133Z,100776.73
2019-03-20T05:29:30.508Z,100778.55
2019-03-20T05:30:31.983Z,100776.38
2019-03-20T05:31:33.371Z,100775.19
2019-03-20T05:32:34.777Z,100770.30
2019-03-20T05:33:36.186Z,100775.19
2019-03-20T05:34:37.601Z,100767.28
2019-03-20T05:35:39.008Z,100761.58
2019-03-20T05:36:40.445Z,100762.58
2019-03-20T05:37:41.994Z,100765.42
2019-03-20T05:38:43.380Z,100763.23
2019-03-20T05:39:44.789Z,100768.58
2019-03-20T05:40:46.198Z,100764.73
2019-03-20T05:41:47.603Z,100760.20
2019-03-20T05:42:48.977Z,100757.52
2019-03-20T05:43:50.413Z,100758.86
2019-03-20T05:44:51.792Z,100760.20
2019-03-20T05:45:53.188Z,100765.21
2019-03-20T05:46:54.574Z,100763.88
2019-03-20T05:47:55.989Z,100759.03
2019-03-20T05:48:57.409Z,100760.85
2019-03-20T05:49:58.813Z,100759.16
2019-03-20T05:51:00.232Z,100761.36
2019-03-20T05:52:01.740Z,100758.83
2019-03-20T05:53:03.216Z,100753.13
2019-03-20T05:54:04.614Z,100756.14
2019-03-20T05:55:06.692Z,100761.67
2019-03-20T05:56:08.091Z,100764.34
2019-03-20T05:57:09.484Z,100767.50
2019-03-20T05:58:10.892Z,100763.48
2019-03-20T05:59:12.307Z,100769.19
2019-03-20T06:00:16.399Z,100765.69
2019-03-20T06:01:17.864Z,100761.16
2019-03-20T06:02:19.262Z,100765.52
2019-03-20T06:03:20.648Z,100768.70
2019-03-20T06:04:22.440Z,100770.05
2019-03-20T06:05:23.828Z,100769.70
2019-03-20T06:06:25.221Z,100766.16
2019-03-20T06:07:26.726Z,100766.52
2019-03-20T06:08:28.116Z,100765.17
2019-03-20T06:09:29.512Z,100770.88
2019-03-20T06:10:31.988Z,100771.73
2019-03-20T06:11:33.389Z,100776.78
2019-03-20T06:12:34.780Z,100771.77
2019-03-20T06:13:36.172Z,100777.82
2019-03-20T06:14:37.561Z,100779.34
2019-03-20T06:15:38.947Z,100774.19
2019-03-20T06:16:40.339Z,100778.76
2019-03-20T06:17:41.770Z,100789.34
2019-03-20T06:18:43.140Z,100789.38
2019-03-20T06:19:44.544Z,100784.06
2019-03-20T06:20:45.924Z,100783.14
2019-03-20T06:21:47.324Z,100779.98
2019-03-20T06:22:48.742Z,100775.00
2019-03-20T06:23:50.132Z,100775.38
2019-03-20T06:24:51.527Z,100776.48
2019-03-20T06:25:53.014Z,100775.38
2019-03-20T06:26:54.569Z,100772.92
2019-03-20T06:27:55.928Z,100778.66
2019-03-20T06:28:57.304Z,100769.52
2019-03-20T06:29:58.702Z,100766.20
2019-03-20T06:31:00.077Z,100765.05
2019-03-20T06:32:01.547Z,100762.40
2019-03-20T06:33:02.932Z,100755.25
2019-03-20T06:34:04.318Z,100748.77
2019-03-20T06:35:07.006Z,100758.52
2019-03-20T06:36:08.395Z,100762.25
2019-03-20T06:37:09.894Z,100759.59
2019-03-20T06:38:11.321Z,100760.62
2019-03-20T06:39:12.986Z,100760.16
2019-03-20T06:40:15.396Z,100761.55
2019-03-20T06:41:16.870Z,100762.91
2019-03-20T06:42:18.271Z,100750.37
2019-03-20T06:43:19.671Z,100751.73
2019-03-20T06:44:21.121Z,100755.25
2019-03-20T06:45:22.524Z,100745.05
2019-03-20T06:46:23.946Z,100747.92
2019-03-20T06:47:25.355Z,100748.08
2019-03-20T06:48:26.784Z,100749.09
2019-03-20T06:49:28.163Z,100740.38
2019-03-20T06:50:29.565Z,100741.39
2019-03-20T06:51:31.046Z,100744.09
2019-03-20T06:52:32.444Z,100750.98
2019-03-20T06:53:33.945Z,100752.53
2019-03-20T06:54:36.358Z,100739.77
2019-03-20T06:55:37.873Z,100748.84
2019-03-20T06:56:39.291Z,100745.49
2019-03-20T06:57:41.699Z,100747.66
2019-03-20T06:58:43.113Z,100750.53
2019-03-20T07:00:11.346Z,100749.53
2019-03-20T07:01:16.342Z,100749.86
2019-03-20T07:02:17.892Z,100741.81
2019-03-20T07:03:23.860Z,100749.20
2019-03-20T07:04:37.999Z,100750.88
2019-03-20T07:05:55.089Z,100750.02
2019-03-20T07:07:03.034Z,100747.01
2019-03-20T07:08:05.516Z,100744.51
2019-03-20T07:09:19.662Z,100746.19
2019-03-20T07:10:31.210Z,100748.05
2019-03-20T07:11:37.492Z,100750.89
2019-03-20T07:12:38.888Z,100758.28
2019-03-20T07:13:40.268Z,100760.97
2019-03-20T07:14:41.778Z,100754.25
2019-03-20T07:15:43.268Z,100755.26
2019-03-20T07:16:44.652Z,100754.25
2019-03-20T07:17:46.044Z,100743.17
2019-03-20T07:18:47.433Z,100748.39
2019-03-20T07:19:48.819Z,100747.88
2019-03-20T07:20:50.221Z,100745.70
2019-03-20T07:21:51.597Z,100743.36
2019-03-20T07:22:53.004Z,100750.56
2019-03-20T07:23:54.484Z,100746.53
2019-03-20T07:24:56.885Z,100751.42
2019-03-20T07:25:58.273Z,100748.73
2019-03-20T07:26:59.664Z,100746.88
2019-03-20T07:28:01.048Z,100746.53
2019-03-20T07:29:02.536Z,100745.86
2019-03-20T07:30:07.524Z,100745.37
2019-03-20T07:31:15.110Z,100747.55
2019-03-20T07:32:12.316Z,100742.17
2019-03-20T07:33:13.789Z,100744.38
2019-03-20T07:34:15.159Z,100749.56
2019-03-20T07:35:16.560Z,100747.39
2019-03-20T07:36:17.951Z,100750.08
2019-03-20T07:37:19.353Z,100748.22
2019-03-20T07:38:20.761Z,100742.02
2019-03-20T07:39:22.174Z,100742.84
2019-03-20T07:40:23.585Z,100734.45
2019-03-20T07:41:26.798Z,100740.16
2019-03-20T07:42:28.176Z,100742.50
2019-03-20T07:43:29.576Z,100741.16
2019-03-20T07:44:31.000Z,100733.44
2019-03-20T07:45:32.422Z,100734.45
2019-03-20T07:46:33.784Z,100734.78
2019-03-20T07:47:35.268Z,100742.36
2019-03-20T07:48:36.676Z,100734.78
2019-03-20T07:49:38.148Z,100736.13
2019-03-20T07:50:39.548Z,100738.33
2019-03-20T07:51:42.061Z,100745.05
2019-03-20T07:52:43.467Z,100738.81
2019-03-20T07:53:44.979Z,100740.49
2019-03-20T07:54:46.385Z,100738.81
2019-03-20T07:55:47.790Z,100734.78
2019-03-20T07:56:49.193Z,100730.75
2019-03-20T07:57:50.569Z,100731.61
2019-03-20T07:58:51.964Z,100732.43
2019-03-20T07:59:53.342Z,100726.05
2019-03-20T08:00:54.731Z,100725.71
2019-03-20T08:01:56.221Z,100725.37
2019-03-20T08:02:57.603Z,100723.88
2019-03-20T08:03:59.065Z,100727.05
2019-03-20T08:05:00.440Z,100725.04
2019-03-20T08:06:03.337Z,100716.64
2019-03-20T08:07:05.764Z,100723.02
2019-03-20T08:08:07.965Z,100721.34
2019-03-20T08:09:09.452Z,100734.30
2019-03-20T08:10:15.572Z,100730.75
2019-03-20T08:11:16.961Z,100720.18
2019-03-20T08:12:19.356Z,100716.48
2019-03-20T08:13:20.730Z,100722.02
2019-03-20T08:14:22.198Z,100714.95
2019-03-20T08:15:23.568Z,100714.62
2019-03-20T08:16:24.969Z,100711.11
2019-03-20T08:17:26.458Z,100712.94
2019-03-20T08:18:27.941Z,100714.62
2019-03-20T08:19:29.327Z,100713.28
2019-03-20T08:20:30.713Z,100712.94
2019-03-20T08:21:32.097Z,100719.17
2019-03-20T08:22:33.603Z,100722.34
2019-03-20T08:23:34.976Z,100716.63
2019-03-20T08:24:36.379Z,100724.20
2019-03-20T08:25:37.753Z,100721.52
2019-03-20T08:26:39.261Z,100726.03
2019-03-20T08:27:40.647Z,100729.06
2019-03-20T08:28:42.039Z,100729.25
2019-03-20T08:29:43.425Z,100728.72
2019-03-20T08:30:44.815Z,100722.53
2019-03-20T08:31:47.201Z,100721.18
2019-03-20T08:32:48.606Z,100726.03
2019-03-20T08:33:50.286Z,100716.14
2019-03-20T08:34:52.328Z,100716.97
2019-03-20T08:35:53.729Z,100713.95
2019-03-20T08:36:55.109Z,100714.28
2019-03-20T08:37:56.501Z,100721.52
2019-03-20T08:38:57.896Z,100724.55
2019-03-20T08:39:59.390Z,100719.66
2019-03-20T08:41:00.777Z,100726.38
2019-03-20T08:42:02.164Z,100717.98
2019-03-20T08:43:03.563Z,100722.34
2019-03-20T08:44:04.936Z,100724.36
2019-03-20T08:45:13.596Z,100723.69
2019-03-20T08:46:15.013Z,100722.34
2019-03-20T08:47:16.422Z,100725.03
2019-03-20T08:48:17.822Z,100722.86
2019-03-20T08:49:19.201Z,100725.70
2019-03-20T08:50:21.800Z,100723.53
2019-03-20T08:51:23.174Z,100723.53
2019-03-20T08:52:24.568Z,100724.02
2019-03-20T08:53:25.956Z,100721.34
2019-03-20T08:54:27.474Z,100712.59
2019-03-20T08:55:28.889Z,100711.59
2019-03-20T08:56:30.305Z,100714.61
2019-03-20T08:57:31.722Z,100713.94
2019-03-20T08:58:33.121Z,100723.68
2019-03-20T08:59:34.501Z,100721.66
2019-03-20T09:00:35.902Z,100733.75
2019-03-20T09:01:37.372Z,100739.13
2019-03-20T09:02:38.777Z,100738.27
2019-03-20T09:03:40.191Z,100735.25
2019-03-20T09:04:41.572Z,100728.53
2019-03-20T09:05:43.083Z,100731.40
2019-03-20T09:06:44.454Z,100735.43
2019-03-20T09:07:47.471Z,100739.45
2019-03-20T09:08:49.252Z,100741.14
2019-03-20T09:09:50.921Z,100734.09
2019-03-20T09:10:52.416Z,100735.77
2019-03-20T09:11:53.900Z,100740.80
2019-03-20T09:12:55.394Z,100741.63
2019-03-20T09:13:56.793Z,100738.79
2019-03-20T09:15:01.524Z,100735.77
2019-03-20T09:16:03.745Z,100738.45
2019-03-20T09:17:05.636Z,100736.77
2019-03-20T09:18:07.139Z,100739.45
2019-03-20T09:19:08.556Z,100732.74
2019-03-20T09:20:21.056Z,100738.11
2019-03-20T09:21:22.441Z,100734.42
2019-03-20T09:22:23.836Z,100734.23
2019-03-20T09:23:25.228Z,100734.76
2019-03-20T09:24:26.636Z,100733.42
2019-03-20T09:25:28.008Z,100728.71
2019-03-20T09:26:29.406Z,100729.53
2019-03-20T09:27:30.781Z,100726.36
2019-03-20T09:28:32.180Z,100721.48
2019-03-20T09:29:36.281Z,100724.68
2019-03-20T09:30:36.868Z,100719.64
2019-03-20T09:31:38.248Z,100725.36
2019-03-20T09:32:39.738Z,100722.67
2019-03-20T09:33:41.233Z,100724.02
2019-03-20T09:34:42.732Z,100729.39
2019-03-20T09:35:44.205Z,100732.90
2019-03-20T09:36:45.613Z,100732.41
2019-03-20T09:37:51.919Z,100726.70
2019-03-20T09:38:50.529Z,100730.73
2019-03-20T09:39:52.021Z,100730.88
2019-03-20T09:40:53.494Z,100732.22
2019-03-20T09:41:54.887Z,100736.77
2019-03-20T09:42:56.359Z,100729.20
2019-03-20T09:43:57.763Z,100732.74
2019-03-20T09:44:59.177Z,100740.28
2019-03-20T09:46:01.594Z,100742.14
2019-03-20T09:47:02.996Z,100735.09
2019-03-20T09:48:04.902Z,100734.23
2019-03-20T09:49:06.960Z,100742.63
2019-03-20T09:50:10.689Z,100735.43
2019-03-20T09:51:12.064Z,100738.60
2019-03-20T09:52:13.453Z,100731.40
2019-03-20T09:53:14.831Z,100729.20
2019-03-20T09:54:16.221Z,100736.44
2019-03-20T09:55:17.607Z,100741.28
2019-03-20T09:56:19.016Z,100739.45
2019-03-20T09:57:20.421Z,100735.92
2019-03-20T09:58:21.827Z,100735.92
2019-03-20T09:59:23.236Z,100736.77
2019-03-20T10:00:25.441Z,100738.11
2019-03-20T10:01:26.803Z,100741.14
2019-03-20T10:02:28.203Z,100730.05
2019-03-20T10:03:29.581Z,100737.59
2019-03-20T10:04:30.983Z,100724.34
2019-03-20T10:05:32.372Z,100736.25
2019-03-20T10:06:33.863Z,100737.26
2019-03-20T10:07:35.382Z,100735.92
2019-03-20T10:08:36.788Z,100739.80
2019-03-20T10:09:39.358Z,100747.00
2019-03-20T10:10:40.761Z,100750.20
2019-03-20T10:11:42.138Z,100744.83
2019-03-20T10:12:43.537Z,100745.17
2019-03-20T10:13:45.911Z,100748.34
2019-03-20T10:14:47.306Z,100751.88
2019-03-20T10:15:48.723Z,100753.23
2019-03-20T10:16:50.341Z,100742.81
2019-03-20T10:17:51.766Z,100744.50
2019-03-20T10:18:54.440Z,100746.84
2019-03-20T10:19:55.854Z,100749.02
2019-03-20T10:20:57.360Z,100746.33
2019-03-20T10:21:58.829Z,100739.61
2019-03-20T10:23:00.221Z,100744.50
2019-03-20T10:24:01.589Z,100740.13
2019-03-20T10:25:04.085Z,100737.78
2019-03-20T10:26:05.470Z,100744.84
2019-03-20T10:27:06.977Z,100739.61
2019-03-20T10:28:08.496Z,100742.81
2019-03-20T10:29:09.905Z,100748.53
2019-03-20T10:30:19.312Z,100745.84
2019-03-20T10:31:20.709Z,100746.33
2019-03-20T10:32:22.088Z,100750.70
2019-03-20T10:33:23.590Z,100753.56
2019-03-20T10:34:24.969Z,100758.94
2019-03-20T10:35:26.360Z,100749.86
2019-03-20T10:36:27.853Z,100757.26
2019-03-20T10:37:29.396Z,100758.27
2019-03-20T10:38:30.801Z,100757.41
2019-03-20T10:39:32.213Z,100762.78
2019-03-20T10:40:33.629Z,100767.33
2019-03-20T10:41:35.025Z,100768.16
2019-03-20T10:42:36.501Z,100760.09
2019-03-20T10:43:37.892Z,100766.47
2019-03-20T10:44:39.276Z,100765.98
2019-03-20T10:45:40.715Z,100762.44
2019-03-20T10:46:42.144Z,100763.30
2019-03-20T10:47:44.652Z,100763.78
2019-03-20T10:48:46.079Z,100765.47
2019-03-20T10:49:47.488Z,100767.47
2019-03-20T10:50:48.998Z,100772.70
2019-03-20T10:51:50.408Z,100767.33
2019-03-20T10:52:51.893Z,100770.02
2019-03-20T10:53:53.289Z,100756.06
2019-03-20T10:54:54.677Z,100773.04
2019-03-20T10:55:57.164Z,100775.20
2019-03-20T10:56:58.571Z,100770.69
2019-03-20T10:57:59.967Z,100778.75
2019-03-20T10:59:01.372Z,100775.20
2019-03-20T11:00:12.777Z,100776.06
2019-03-20T11:01:14.295Z,100785.28
2019-03-20T11:02:15.692Z,100779.25
2019-03-20T11:03:17.065Z,100777.08
2019-03-20T11:04:18.481Z,100781.11
2019-03-20T11:05:20.152Z,100783.80
2019-03-20T11:06:21.545Z,100783.45
2019-03-20T11:07:22.965Z,100782.11
2019-03-20T11:08:24.444Z,100784.80
2019-03-20T11:09:25.960Z,100787.83
2019-03-20T11:10:27.853Z,100785.48
2019-03-20T11:11:29.305Z,100786.48
2019-03-20T11:12:30.695Z,100784.99
2019-03-20T11:13:32.071Z,100779.09
2019-03-20T11:14:33.477Z,100782.13
2019-03-20T11:15:34.852Z,100780.78
2019-03-20T11:16:36.358Z,100787.83
2019-03-20T11:17:37.768Z,100783.47
2019-03-20T11:18:39.184Z,100786.83
2019-03-20T11:19:40.601Z,100787.69
2019-03-20T11:20:42.014Z,100785.48
2019-03-20T11:21:43.423Z,100791.86
2019-03-20T11:22:45.149Z,100796.23
2019-03-20T11:23:46.519Z,100794.89
2019-03-20T11:24:47.921Z,100797.76
2019-03-20T11:25:49.304Z,100801.27
2019-03-20T11:26:50.806Z,100796.90
2019-03-20T11:27:52.196Z,100797.23
2019-03-20T11:28:53.608Z,100800.93
2019-03-20T11:29:55.023Z,100795.22
2019-03-20T11:30:56.537Z,100800.93
2019-03-20T11:31:57.944Z,100801.78
2019-03-20T11:32:59.356Z,100804.95
2019-03-20T11:34:00.924Z,100810.33
2019-03-20T11:35:02.524Z,100808.16
2019-03-20T11:36:03.897Z,100812.20
2019-03-20T11:37:05.592Z,100816.71
2019-03-20T11:38:06.985Z,100817.57
2019-03-20T11:39:08.679Z,100818.39
2019-03-20T11:40:27.879Z,100818.39
2019-03-20T11:41:30.396Z,100813.88
2019-03-20T11:42:31.812Z,100813.70
2019-03-20T11:43:33.213Z,100816.38
2019-03-20T11:44:34.592Z,100820.94
2019-03-20T11:45:35.991Z,100818.73